Time;durP1;ratioP1;P1;durP2;ratioP2;P2;SDS_P1;SDS_P2;PMS_P1;PMS_P2;Temp;Humidity;BMP_temperature;BMP_pressure;BME280_temperature;BME280_humidity;BME280_pressure;Samples;Min_cycle;Max_cycle;Signal;HPM_P1;HPM_P2
2022/09/19 00:01:35;;;;;;;;;;;;;;;0.82;84.15;95383.19;5100272;28;19999;-65
2022/09/19 00:04:02;;;;;;;;;;;;;;;0.71;84.76;95377.97;5100877;28;20026;-64
2022/09/19 00:06:27;;;;;;;;;;;;;;;0.85;84.22;95382.94;5100837;28;19980;-64
2022/09/19 00:08:53;;;;;;;;;;;;;;;0.57;84.80;95379.91;5099869;28;19987;-67
2022/09/19 00:11:19;;;;;;;;;;;;;;;0.53;85.66;95386.34;5100247;28;20496;-64
2022/09/19 00:13:45;;;;;;;;;;;;;;;0.88;83.85;95373.19;5100196;28;20091;-66
2022/09/19 00:16:18;;;;;;;;;;;;;;;0.77;84.57;95376.66;5097096;28;20019;-66
2022/09/19 00:18:43;;;;;;;;;;;;;;;0.53;85.24;95381.09;5098220;28;20112;-64
2022/09/19 00:21:09;;;;;;;;;;;;;;;0.66;84.66;95396.69;5100323;28;20020;-65
2022/09/19 00:26:19;;;;;;;;;;;;;;;0.81;84.24;95394.63;5102504;28;20278;-66
2022/09/19 00:28:45;;;;;;;;;;;;;;;0.76;85.33;95380.22;5101264;28;20091;-65
2022/09/19 00:31:16;;;;;;;;;;;;;;;0.74;84.22;95385.59;5103138;28;20684;-64
2022/09/19 00:33:41;;;;;;;;;;;;;;;0.68;84.82;95386.09;5093087;28;20299;-64
2022/09/19 00:36:07;;;;;;;;;;;;;;;0.60;85.88;95381.44;5081786;28;20428;-66
2022/09/19 00:38:32;;;;;;;;;;;;;;;0.46;85.70;95377.31;5083430;28;19980;-67
2022/09/19 00:40:58;;;;;;;;;;;;;;;0.38;86.64;95390.16;5065527;28;20041;-66
2022/09/19 00:43:25;;;;;;;;;;;;;;;0.55;85.93;95389.66;5082828;28;19984;-65
2022/09/19 00:45:50;;;;;;;;;;;;;;;0.72;84.56;95393.56;5095673;28;19988;-65
2022/09/19 00:48:16;;;;;;;;;;;;;;;0.77;84.98;95380.13;5103257;28;19996;-66
2022/09/19 00:50:43;;;;;;;;;;;;;;;0.81;84.35;95386.78;5079063;28;20045;-66
2022/09/19 00:53:20;;;;;;;;;;;;;;;0.80;84.05;95403.47;5085610;28;19986;-67
2022/09/19 00:55:45;;;;;;;;;;;;;;;0.71;85.16;95391.06;5103354;28;20332;-65
2022/09/19 00:58:13;;;;;;;;;;;;;;;0.82;84.56;95400.72;5104545;28;20003;-65
2022/09/19 01:00:39;;;;;;;;;;;;;;;0.99;83.59;95391.50;5102149;28;19964;-67
2022/09/19 01:03:06;;;;;;;;;;;;;;;0.72;85.54;95395.38;5104524;28;20735;-65
2022/09/19 01:05:59;;;;;;;;;;;;;;;0.76;84.79;95396.81;5101094;28;19991;-64
2022/09/19 01:08:24;;;;;;;;;;;;;;;0.62;85.60;95410.16;5104293;28;19968;-64
2022/09/19 01:10:49;;;;;;;;;;;;;;;0.76;84.48;95402.03;5104206;28;19992;-66
2022/09/19 01:13:37;;;;;;;;;;;;;;;0.33;86.90;95412.31;5103863;28;20447;-67
2022/09/19 01:16:05;;;;;;;;;;;;;;;0.31;88.19;95416.81;5105305;27;19964;-65
2022/09/19 01:18:42;;;;;;;;;;;;;;;0.95;85.34;95416.28;5085711;28;20467;-66
2022/09/19 01:24:19;;;;;;;;;;;;;;;0.46;86.44;95419.22;5102008;28;19975;-65
2022/09/19 01:26:51;;;;;;;;;;;;;;;0.46;87.06;95427.06;5102994;28;20199;-67
2022/09/19 01:29:19;;;;;;;;;;;;;;;0.38;87.60;95434.69;5102717;28;20008;-65
2022/09/19 01:31:45;;;;;;;;;;;;;;;0.29;87.87;95417.91;5102786;28;19976;-66
2022/09/19 01:34:12;;;;;;;;;;;;;;;0.44;87.81;95427.19;5102813;28;20232;-67
2022/09/19 01:36:47;;;;;;;;;;;;;;;0.59;86.92;95422.53;5102262;28;19995;-65
2022/09/19 01:39:14;;;;;;;;;;;;;;;0.91;85.36;95431.44;5085708;28;19985;-66
2022/09/19 01:41:46;;;;;;;;;;;;;;;0.90;85.09;95434.19;5089696;28;19992;-66
2022/09/19 01:44:18;;;;;;;;;;;;;;;0.81;85.10;95435.72;5102858;28;20279;-64
2022/09/19 01:47:03;;;;;;;;;;;;;;;1.24;83.11;95424.47;5100683;28;20360;-66
2022/09/19 01:49:38;;;;;;;;;;;;;;;0.87;84.88;95434.41;5084289;28;19999;-67
2022/09/19 01:52:13;;;;;;;;;;;;;;;0.53;86.19;95437.91;5102806;28;20390;-66
2022/09/19 01:54:45;;;;;;;;;;;;;;;0.68;86.17;95428.03;5101577;28;20082;-67
2022/09/19 01:57:19;;;;;;;;;;;;;;;0.80;85.92;95426.22;5102822;27;20310;-64
2022/09/19 01:59:45;;;;;;;;;;;;;;;1.01;84.94;95433.31;5099986;28;19968;-67
2022/09/19 02:02:28;;;;;;;;;;;;;;;0.77;86.02;95437.78;5098323;28;20395;-64
2022/09/19 02:04:58;;;;;;;;;;;;;;;0.86;85.84;95436.22;5102844;28;20437;-65
2022/09/19 02:07:42;;;;;;;;;;;;;;;1.16;84.15;95439.94;5096001;28;20289;-66
2022/09/19 02:10:18;;;;;;;;;;;;;;;1.31;83.23;95444.94;5101399;28;20099;-65
2022/09/19 02:12:43;;;;;;;;;;;;;;;1.27;83.25;95446.13;5084884;28;20055;-65
2022/09/19 02:15:10;;;;;;;;;;;;;;;1.42;81.71;95452.75;5102430;28;20380;-65
2022/09/19 02:17:50;;;;;;;;;;;;;;;1.07;84.16;95456.44;5094509;28;20280;-67
2022/09/19 02:20:17;;;;;;;;;;;;;;;1.24;83.22;95469.03;5094944;28;19975;-66
2022/09/19 02:22:45;;;;;;;;;;;;;;;1.21;82.86;95461.41;5085290;28;19996;-66
2022/09/19 02:25:12;;;;;;;;;;;;;;;1.08;84.42;95453.69;5101905;28;19992;-66
2022/09/19 02:27:48;;;;;;;;;;;;;;;1.29;82.88;95462.59;5091533;28;19971;-65
2022/09/19 02:30:14;;;;;;;;;;;;;;;1.93;80.40;95462.72;5102270;27;20226;-65
2022/09/19 02:32:41;;;;;;;;;;;;;;;1.70;80.78;95468.91;5101103;28;19995;-66
2022/09/19 02:35:06;;;;;;;;;;;;;;;1.51;81.78;95466.94;5102670;28;20014;-66
2022/09/19 02:37:35;;;;;;;;;;;;;;;1.96;79.88;95471.19;5101916;28;20035;-65
2022/09/19 02:40:13;;;;;;;;;;;;;;;1.82;80.78;95474.94;5091158;28;20239;-66
2022/09/19 02:42:43;;;;;;;;;;;;;;;1.76;80.78;95480.69;5102014;28;20516;-64
2022/09/19 02:45:16;;;;;;;;;;;;;;;1.91;80.76;95475.16;5102049;28;20087;-66
2022/09/19 02:47:45;;;;;;;;;;;;;;;2.03;79.58;95475.91;5100102;28;20049;-66
2022/09/19 02:50:12;;;;;;;;;;;;;;;1.65;81.41;95481.56;5099551;28;20018;-67
2022/09/19 02:52:37;;;;;;;;;;;;;;;1.88;79.82;95484.94;5100388;28;19964;-66
2022/09/19 02:55:05;;;;;;;;;;;;;;;1.94;80.42;95483.59;5088444;28;19970;-66
2022/09/19 02:57:31;;;;;;;;;;;;;;;1.68;80.86;95498.88;5093126;28;20082;-67
2022/09/19 02:59:58;;;;;;;;;;;;;;;2.18;79.27;95492.19;5087692;28;20281;-66
2022/09/19 03:02:25;;;;;;;;;;;;;;;1.83;80.48;95489.72;5100883;28;19991;-65
2022/09/19 03:04:52;;;;;;;;;;;;;;;2.18;79.22;95486.94;5101370;28;19988;-66
2022/09/19 03:07:25;;;;;;;;;;;;;;;2.17;79.87;95498.41;5085552;28;20529;-67
2022/09/19 03:09:52;;;;;;;;;;;;;;;2.50;77.84;95491.28;5084182;28;20056;-67
2022/09/19 03:12:18;;;;;;;;;;;;;;;2.84;77.03;95493.66;5098774;28;19984;-66
2022/09/19 03:14:47;;;;;;;;;;;;;;;2.38;77.96;95503.63;5101778;28;20039;-65
2022/09/19 03:17:14;;;;;;;;;;;;;;;2.40;77.49;95496.47;5085797;28;20463;-66
2022/09/19 03:19:41;;;;;;;;;;;;;;;2.64;77.30;95498.81;5084887;28;20003;-65
2022/09/19 03:22:06;;;;;;;;;;;;;;;2.61;76.49;95496.44;5101269;28;20157;-65
2022/09/19 03:24:32;;;;;;;;;;;;;;;2.70;76.18;95496.63;5084929;28;20062;-67
2022/09/19 03:26:57;;;;;;;;;;;;;;;2.58;76.81;95503.78;5101613;28;19964;-65
2022/09/19 03:29:22;;;;;;;;;;;;;;;2.43;77.98;95495.38;5101263;28;20039;-67
2022/09/19 03:31:50;;;;;;;;;;;;;;;2.49;77.64;95503.56;5101181;28;20351;-67
2022/09/19 03:34:17;;;;;;;;;;;;;;;2.39;77.84;95506.13;5101446;28;20014;-68
2022/09/19 03:36:43;;;;;;;;;;;;;;;2.42;78.23;95509.47;5101461;28;20487;-66
2022/09/19 03:39:08;;;;;;;;;;;;;;;2.22;78.49;95510.19;5101959;28;19979;-67
2022/09/19 03:41:34;;;;;;;;;;;;;;;1.85;80.79;95521.97;5101292;28;20509;-66
2022/09/19 03:44:01;;;;;;;;;;;;;;;2.44;77.91;95518.06;5101971;28;19980;-67
2022/09/19 03:46:27;;;;;;;;;;;;;;;2.61;77.72;95512.22;5100337;28;19996;-64
2022/09/19 03:48:52;;;;;;;;;;;;;;;2.09;79.03;95520.06;5099577;28;20517;-64
2022/09/19 03:51:18;;;;;;;;;;;;;;;2.17;79.55;95524.69;5098118;28;20190;-66
2022/09/19 03:53:43;;;;;;;;;;;;;;;1.80;80.68;95525.91;5100528;28;19984;-66
2022/09/19 03:56:10;;;;;;;;;;;;;;;1.96;80.44;95534.19;5101690;28;20071;-66
2022/09/19 03:58:35;;;;;;;;;;;;;;;1.96;79.49;95535.97;5102351;28;19984;-65
2022/09/19 04:01:01;;;;;;;;;;;;;;;1.90;80.28;95547.81;5102404;28;19989;-67
2022/09/19 04:03:26;;;;;;;;;;;;;;;1.60;81.47;95557.25;5105028;28;19968;-65
2022/09/19 04:05:51;;;;;;;;;;;;;;;2.09;80.15;95535.81;5104717;28;19988;-67
2022/09/19 04:08:17;;;;;;;;;;;;;;;2.10;79.79;95538.31;5105711;28;19982;-67
2022/09/19 04:10:42;;;;;;;;;;;;;;;2.47;78.30;95544.09;5104357;28;20411;-66
2022/09/19 04:13:09;;;;;;;;;;;;;;;1.99;79.40;95547.09;5104826;28;20071;-68
2022/09/19 04:15:34;;;;;;;;;;;;;;;2.53;78.52;95540.94;5093693;28;19972;-64
2022/09/19 04:17:59;;;;;;;;;;;;;;;2.21;78.73;95545.28;5104598;28;20041;-66
2022/09/19 04:20:27;;;;;;;;;;;;;;;2.47;77.92;95546.72;5103992;28;20070;-67
2022/09/19 04:22:52;;;;;;;;;;;;;;;2.58;77.08;95546.66;5105214;28;20075;-65
2022/09/19 04:25:17;;;;;;;;;;;;;;;3.13;74.86;95549.97;5103746;28;20082;-67
2022/09/19 04:27:44;;;;;;;;;;;;;;;2.81;75.86;95543.03;5105115;28;19982;-67
2022/09/19 04:30:10;;;;;;;;;;;;;;;3.24;74.54;95556.91;5103151;28;20004;-67
2022/09/19 04:32:38;;;;;;;;;;;;;;;2.41;77.77;95552.50;5103180;28;20003;-66
2022/09/19 04:35:03;;;;;;;;;;;;;;;2.76;76.12;95549.50;5104719;28;19967;-67
2022/09/19 04:37:29;;;;;;;;;;;;;;;2.68;76.85;95562.47;5104503;28;19992;-67
2022/09/19 04:39:55;;;;;;;;;;;;;;;2.34;77.59;95565.28;5104266;28;20225;-67
2022/09/19 04:42:20;;;;;;;;;;;;;;;2.68;76.73;95562.47;5104593;28;20204;-65
2022/09/19 04:44:45;;;;;;;;;;;;;;;2.55;77.52;95567.09;5104000;28;20103;-66
2022/09/19 04:47:10;;;;;;;;;;;;;;;2.39;78.05;95569.19;5103223;28;20286;-66
2022/09/19 04:49:39;;;;;;;;;;;;;;;2.32;77.76;95568.06;5102734;28;20155;-66
2022/09/19 04:52:05;;;;;;;;;;;;;;;2.17;78.90;95585.09;5099816;28;19978;-64
2022/09/19 04:54:35;;;;;;;;;;;;;;;2.06;80.22;95581.56;5100940;28;19992;-64
2022/09/19 04:57:00;;;;;;;;;;;;;;;2.34;78.98;95581.91;5101513;28;20041;-63
2022/09/19 04:59:25;;;;;;;;;;;;;;;2.71;76.71;95579.78;5104732;28;19980;-65
2022/09/19 05:01:51;;;;;;;;;;;;;;;2.96;76.10;95586.41;5104167;28;20322;-66
2022/09/19 05:04:16;;;;;;;;;;;;;;;2.95;76.11;95591.81;5103803;28;20025;-66
2022/09/19 05:06:42;;;;;;;;;;;;;;;3.01;74.80;95575.50;5103430;28;20379;-65
2022/09/19 05:09:08;;;;;;;;;;;;;;;3.41;74.41;95585.22;5103590;28;20002;-65
2022/09/19 05:11:33;;;;;;;;;;;;;;;2.88;75.86;95594.97;5084733;28;20007;-65
2022/09/19 05:14:00;;;;;;;;;;;;;;;3.01;75.58;95589.50;5103021;28;20029;-67
2022/09/19 05:16:25;;;;;;;;;;;;;;;3.29;74.50;95602.91;5104004;28;19972;-67
2022/09/19 05:18:51;;;;;;;;;;;;;;;3.53;73.29;95606.19;5102777;28;20406;-67
2022/09/19 05:21:17;;;;;;;;;;;;;;;2.97;75.83;95603.88;5103024;27;20015;-66
2022/09/19 05:23:42;;;;;;;;;;;;;;;3.23;74.63;95613.16;5102981;28;20079;-66
2022/09/19 05:26:08;;;;;;;;;;;;;;;3.31;74.70;95610.69;5103350;28;20079;-66
2022/09/19 05:28:33;;;;;;;;;;;;;;;3.56;73.35;95624.38;5103631;28;20172;-66
2022/09/19 05:31:04;;;;;;;;;;;;;;;3.56;73.30;95624.38;5103552;28;20471;-65
2022/09/19 05:33:29;;;;;;;;;;;;;;;3.68;72.73;95620.66;5102022;28;20450;-66
2022/09/19 05:35:55;;;;;;;;;;;;;;;3.70;72.97;95620.53;5103996;28;19968;-68
2022/09/19 05:38:21;;;;;;;;;;;;;;;3.24;74.40;95622.69;5103443;28;20481;-68
2022/09/19 05:40:46;;;;;;;;;;;;;;;2.96;75.57;95632.94;5103040;28;20307;-67
2022/09/19 05:43:11;;;;;;;;;;;;;;;3.02;76.07;95629.78;5103788;28;19960;-66
2022/09/19 05:45:37;;;;;;;;;;;;;;;3.17;74.81;95641.63;5101084;28;20677;-67
2022/09/19 05:48:06;;;;;;;;;;;;;;;3.20;75.47;95629.19;5103239;28;20658;-67
2022/09/19 05:50:32;;;;;;;;;;;;;;;3.21;74.56;95639.59;5102714;28;20053;-67
2022/09/19 05:55:41;;;;;;;;;;;;;;;3.60;73.60;95644.19;5103550;28;19971;-67
2022/09/19 05:58:06;;;;;;;;;;;;;;;3.68;72.23;95646.19;5102677;28;19984;-65
2022/09/19 06:00:31;;;;;;;;;;;;;;;3.75;72.25;95635.94;5102228;28;20327;-67
2022/09/19 06:03:00;;;;;;;;;;;;;;;3.45;73.20;95641.09;5101906;28;20411;-67
2022/09/19 06:05:25;;;;;;;;;;;;;;;3.55;72.69;95655.13;5102390;28;20062;-67
2022/09/19 06:07:56;;;;;;;;;;;;;;;3.65;72.62;95647.28;5102882;28;19976;-66
2022/09/19 06:10:21;;;;;;;;;;;;;;;3.22;73.96;95653.56;5102060;28;20008;-65
2022/09/19 06:12:46;;;;;;;;;;;;;;;2.99;74.80;95659.00;5099175;28;20453;-66
2022/09/19 06:15:11;;;;;;;;;;;;;;;3.51;73.11;95652.91;5102934;28;19998;-67
2022/09/19 06:17:37;;;;;;;;;;;;;;;2.98;74.95;95658.16;5102072;28;20595;-67
2022/09/19 06:20:02;;;;;;;;;;;;;;;2.98;74.55;95662.56;5101861;28;20049;-66
2022/09/19 06:22:29;;;;;;;;;;;;;;;2.98;74.80;95658.16;5101784;28;20379;-67
2022/09/19 06:24:54;;;;;;;;;;;;;;;3.14;74.13;95667.38;5101975;28;20472;-66
2022/09/19 06:27:19;;;;;;;;;;;;;;;2.77;74.93;95673.94;5102550;28;20178;-67
2022/09/19 06:29:46;;;;;;;;;;;;;;;2.60;75.91;95670.91;5101702;28;19992;-68
2022/09/19 06:32:11;;;;;;;;;;;;;;;2.60;76.41;95678.78;5103139;28;20201;-67
2022/09/19 06:34:37;;;;;;;;;;;;;;;2.46;77.13;95681.72;5100999;28;20014;-67
2022/09/19 06:37:02;;;;;;;;;;;;;;;2.76;76.13;95680.16;5101417;28;20070;-66
2022/09/19 06:39:27;;;;;;;;;;;;;;;2.91;75.71;95681.50;5100386;28;19976;-68
2022/09/19 06:41:54;;;;;;;;;;;;;;;2.77;75.14;95692.34;5101375;28;19984;-66
2022/09/19 06:44:21;;;;;;;;;;;;;;;3.13;75.02;95684.13;5101588;28;19983;-67
2022/09/19 06:46:47;;;;;;;;;;;;;;;3.12;75.09;95691.19;5101605;28;20384;-68
2022/09/19 06:49:12;;;;;;;;;;;;;;;3.36;74.62;95692.69;5100678;28;20402;-65
2022/09/19 06:51:37;;;;;;;;;;;;;;;3.06;74.78;95694.31;5101074;28;20033;-65
2022/09/19 06:54:04;;;;;;;;;;;;;;;3.10;74.82;95693.09;5100311;28;20417;-66
2022/09/19 06:56:29;;;;;;;;;;;;;;;3.63;72.50;95693.97;5099271;28;20052;-64
2022/09/19 06:58:55;;;;;;;;;;;;;;;3.80;71.86;95692.50;5095965;28;19965;-68
2022/09/19 07:01:20;;;;;;;;;;;;;;;3.47;73.13;95706.78;5096587;27;19992;-67
2022/09/19 07:03:45;;;;;;;;;;;;;;;3.43;72.71;95699.13;5101582;28;20064;-68
2022/09/19 07:06:11;;;;;;;;;;;;;;;2.94;74.02;95714.59;5100605;28;20089;-67
2022/09/19 07:08:37;;;;;;;;;;;;;;;2.79;75.68;95716.69;5101757;28;19972;-66
2022/09/19 07:11:03;;;;;;;;;;;;;;;3.04;75.13;95717.31;5101652;28;19984;-68
2022/09/19 07:13:28;;;;;;;;;;;;;;;2.99;76.21;95712.41;5101778;28;20007;-66
2022/09/19 07:15:54;;;;;;;;;;;;;;;3.17;75.43;95714.50;5101847;28;19977;-68
2022/09/19 07:18:19;;;;;;;;;;;;;;;2.78;76.42;95725.56;5101103;28;19989;-67
2022/09/19 07:20:44;;;;;;;;;;;;;;;2.71;77.01;95724.38;5100898;28;19973;-66
2022/09/19 07:23:13;;;;;;;;;;;;;;;2.79;76.56;95732.47;5101119;28;19961;-67
2022/09/19 07:25:39;;;;;;;;;;;;;;;2.71;77.02;95732.28;5099850;28;20037;-67
2022/09/19 07:28:05;;;;;;;;;;;;;;;2.88;76.50;95731.72;5101696;28;19976;-65
2022/09/19 07:30:31;;;;;;;;;;;;;;;2.85;76.92;95739.88;5100496;28;20046;-66
2022/09/19 07:32:57;;;;;;;;;;;;;;;2.93;76.55;95744.50;5098316;28;20411;-67
2022/09/19 07:35:22;;;;;;;;;;;;;;;2.99;75.97;95745.81;5100425;28;20498;-64
2022/09/19 07:37:48;;;;;;;;;;;;;;;3.77;73.86;95740.16;5104387;28;20001;-68
2022/09/19 07:40:14;;;;;;;;;;;;;;;3.28;74.90;95740.75;5098968;27;20050;-68
2022/09/19 07:42:39;;;;;;;;;;;;;;;3.48;74.66;95751.41;5102053;28;20074;-66
2022/09/19 07:45:04;;;;;;;;;;;;;;;3.57;74.67;95752.41;5101817;28;20022;-68
2022/09/19 07:47:30;;;;;;;;;;;;;;;3.12;76.55;95774.53;5101050;28;20026;-67
2022/09/19 07:49:55;;;;;;;;;;;;;;;2.94;77.17;95782.16;5100717;27;19996;-67
2022/09/19 07:52:22;;;;;;;;;;;;;;;2.84;77.55;95775.03;5103015;28;20211;-67
2022/09/19 07:54:47;;;;;;;;;;;;;;;3.40;75.59;95773.06;5100723;28;19988;-67
2022/09/19 07:57:12;;;;;;;;;;;;;;;3.47;75.24;95788.38;5103135;28;20049;-67
2022/09/19 07:59:39;;;;;;;;;;;;;;;3.46;75.06;95781.44;5102651;28;20067;-67
2022/09/19 08:02:07;;;;;;;;;;;;;;;3.42;75.29;95783.47;5083211;28;20009;-69
2022/09/19 08:04:32;;;;;;;;;;;;;;;3.77;74.30;95778.84;5099566;28;20008;-67
2022/09/19 08:06:57;;;;;;;;;;;;;;;3.93;74.10;95779.22;5088226;28;20100;-67
2022/09/19 08:09:22;;;;;;;;;;;;;;;4.51;72.45;95787.44;5100478;28;20420;-67
2022/09/19 08:11:48;;;;;;;;;;;;;;;4.16;73.04;95781.66;5100343;28;19968;-68
2022/09/19 08:14:13;;;;;;;;;;;;;;;3.89;73.21;95792.75;5103765;28;20118;-65
2022/09/19 08:16:38;;;;;;;;;;;;;;;3.79;73.71;95787.44;5103374;28;20007;-68
2022/09/19 08:19:04;;;;;;;;;;;;;;;4.21;73.52;95786.50;5101822;28;19968;-68
2022/09/19 08:21:30;;;;;;;;;;;;;;;4.54;70.71;95786.31;5101678;28;20537;-66
2022/09/19 08:23:56;;;;;;;;;;;;;;;4.41;72.72;95792.69;5103589;28;20013;-68
2022/09/19 08:26:21;;;;;;;;;;;;;;;3.91;74.27;95802.19;5101325;28;20035;-67
2022/09/19 08:28:48;;;;;;;;;;;;;;;4.29;72.79;95794.56;5102033;28;19976;-67
2022/09/19 08:31:13;;;;;;;;;;;;;;;4.06;74.17;95804.50;5103295;28;19992;-65
2022/09/19 08:33:38;;;;;;;;;;;;;;;4.89;71.48;95806.09;5099684;28;19987;-67
2022/09/19 08:36:04;;;;;;;;;;;;;;;4.58;71.87;95814.09;5104227;28;19964;-67
2022/09/19 08:38:29;;;;;;;;;;;;;;;4.45;72.50;95812.53;5101887;27;20112;-67
2022/09/19 08:41:05;;;;;;;;;;;;;;;4.40;72.60;95814.75;5104077;28;20553;-67
2022/09/19 08:43:45;;;;;;;;;;;;;;;4.00;74.29;95815.53;5102621;28;19964;-67
2022/09/19 08:46:15;;;;;;;;;;;;;;;3.89;74.46;95825.22;5097785;28;19992;-67
2022/09/19 08:48:40;;;;;;;;;;;;;;;4.03;74.02;95825.81;5077212;28;19996;-66
2022/09/19 08:51:08;;;;;;;;;;;;;;;4.24;73.48;95820.50;5102796;28;20031;-67
2022/09/19 08:53:34;;;;;;;;;;;;;;;4.08;73.99;95826.25;5089826;28;19992;-66
2022/09/19 08:56:00;;;;;;;;;;;;;;;4.36;73.13;95825.69;5091195;28;19968;-68
2022/09/19 08:58:26;;;;;;;;;;;;;;;4.43;73.17;95832.91;5103099;28;20437;-67
2022/09/19 09:00:51;;;;;;;;;;;;;;;4.92;72.13;95826.91;5099756;28;19988;-67
2022/09/19 09:03:17;;;;;;;;;;;;;;;4.97;72.45;95829.97;5100070;28;19968;-66
2022/09/19 09:05:57;;;;;;;;;;;;;;;5.21;71.82;95828.75;5088380;28;20480;-68
2022/09/19 09:08:22;;;;;;;;;;;;;;;5.29;70.92;95828.09;5089778;28;19975;-67
2022/09/19 09:11:07;;;;;;;;;;;;;;;4.48;74.03;95826.41;5100944;28;19996;-67
2022/09/19 09:13:36;;;;;;;;;;;;;;;4.15;75.02;95837.94;5099462;28;19992;-66
2022/09/19 09:16:09;;;;;;;;;;;;;;;4.03;76.26;95845.13;5086363;28;20167;-66
2022/09/19 09:18:50;;;;;;;;;;;;;;;4.10;75.87;95842.78;5086584;28;20325;-68
2022/09/19 09:21:15;;;;;;;;;;;;;;;4.24;75.15;95840.75;5099177;28;19999;-68
2022/09/19 09:23:42;;;;;;;;;;;;;;;4.73;74.69;95838.25;5103809;28;19972;-66
2022/09/19 09:26:13;;;;;;;;;;;;;;;4.97;74.52;95839.72;5084050;28;19999;-68
2022/09/19 09:28:38;;;;;;;;;;;;;;;4.47;76.95;95836.13;5101454;28;19978;-65
2022/09/19 09:31:07;;;;;;;;;;;;;;;5.42;74.72;95829.59;5099989;28;19984;-65
2022/09/19 09:33:33;;;;;;;;;;;;;;;5.75;71.70;95827.47;5094555;28;19994;-66
2022/09/19 09:36:04;;;;;;;;;;;;;;;5.71;73.26;95824.28;5091895;28;20398;-66
2022/09/19 09:38:33;;;;;;;;;;;;;;;5.50;72.83;95826.28;5089381;28;19992;-67
2022/09/19 09:43:45;;;;;;;;;;;;;;;5.36;73.16;95825.72;5103161;28;20351;-65
2022/09/19 09:46:12;;;;;;;;;;;;;;;5.04;73.38;95843.44;5086071;28;20027;-68
2022/09/19 09:48:38;;;;;;;;;;;;;;;4.61;74.96;95847.25;5099117;28;19996;-68
2022/09/19 09:51:03;;;;;;;;;;;;;;;5.32;72.72;95830.44;5083005;28;20011;-68
2022/09/19 09:53:34;;;;;;;;;;;;;;;5.49;71.24;95838.63;5102172;28;20087;-68
2022/09/19 09:56:38;;;;;;;;;;;;;;;6.09;69.50;95840.16;5101318;28;19927;-67
2022/09/19 10:03:34;;;;;;;;;;;;;;;6.64;72.69;95837.75;5036053;28;20003;-66
2022/09/19 10:05:01;;;;;;;;;;;;;;;6.88;68.63;95841.66;5082870;28;20042;-66
2022/09/19 10:07:34;;;;;;;;;;;;;;;6.16;68.76;95843.09;5102477;28;20508;-68
2022/09/19 10:10:03;;;;;;;;;;;;;;;5.69;71.42;95854.47;5100366;27;20030;-65
2022/09/19 10:12:32;;;;;;;;;;;;;;;6.42;68.75;95845.06;5085594;28;20425;-65
2022/09/19 10:14:58;;;;;;;;;;;;;;;6.35;69.19;95838.69;5101887;27;19999;-66
2022/09/19 10:17:23;;;;;;;;;;;;;;;6.16;69.95;95845.72;5102602;28;20023;-67
2022/09/19 10:19:50;;;;;;;;;;;;;;;5.96;70.22;95845.75;5100901;28;20039;-67
2022/09/19 10:22:16;;;;;;;;;;;;;;;5.78;71.14;95852.78;5084958;28;20559;-65
2022/09/19 10:24:42;;;;;;;;;;;;;;;5.47;69.90;95844.06;5100070;28;20083;-65
2022/09/19 10:27:11;;;;;;;;;;;;;;;6.51;68.52;95843.38;5084889;28;20335;-66
2022/09/19 10:29:41;;;;;;;;;;;;;;;5.86;69.66;95844.97;5098579;28;20223;-65
2022/09/19 10:32:07;;;;;;;;;;;;;;;5.83;68.88;95843.44;5087281;28;19974;-67
2022/09/19 10:34:35;;;;;;;;;;;;;;;6.28;68.90;95845.53;5102025;28;19992;-67
2022/09/19 10:37:01;;;;;;;;;;;;;;;6.33;69.17;95851.22;5100822;28;20015;-65
2022/09/19 10:39:27;;;;;;;;;;;;;;;6.40;68.22;95857.59;5101747;28;20413;-65
2022/09/19 10:41:52;;;;;;;;;;;;;;;6.27;68.40;95831.50;5099658;28;20004;-66
2022/09/19 10:44:22;;;;;;;;;;;;;;;6.56;68.52;95835.81;5101267;28;19982;-66
2022/09/19 10:46:55;;;;;;;;;;;;;;;6.62;67.11;95840.53;5091722;28;20000;-66
2022/09/19 10:49:28;;;;;;;;;;;;;;;6.31;66.72;95832.88;5101042;28;20471;-67
2022/09/19 10:51:55;;;;;;;;;;;;;;;6.61;65.19;95845.97;5099959;28;19978;-67
2022/09/19 10:54:25;;;;;;;;;;;;;;;6.77;66.51;95832.94;5093103;28;20054;-66
2022/09/19 10:56:51;;;;;;;;;;;;;;;6.92;64.76;95839.53;5099224;28;20083;-68
2022/09/19 10:59:23;;;;;;;;;;;;;;;6.97;65.53;95843.38;5085044;28;20596;-66
2022/09/19 11:02:07;;;;;;;;;;;;;;;7.06;64.30;95841.66;5087756;28;19987;-68
2022/09/19 11:04:33;;;;;;;;;;;;;;;6.49;64.11;95842.69;5099820;28;19976;-67
2022/09/19 11:06:59;;;;;;;;;;;;;;;6.67;63.76;95828.69;5101447;28;19964;-67
2022/09/19 11:09:26;;;;;;;;;;;;;;;6.95;62.90;95834.78;5091261;28;20041;-67
2022/09/19 11:11:51;;;;;;;;;;;;;;;7.14;64.47;95827.66;5098815;28;19995;-66
2022/09/19 11:14:22;;;;;;;;;;;;;;;7.09;64.57;95825.50;5099747;28;20042;-67
2022/09/19 11:17:00;;;;;;;;;;;;;;;7.70;61.98;95831.94;5101698;28;20460;-66
2022/09/19 11:19:37;;;;;;;;;;;;;;;7.69;62.06;95832.94;5098784;28;19915;-67
2022/09/19 11:22:03;;;;;;;;;;;;;;;7.79;61.85;95836.34;5093227;28;19934;-67
2022/09/19 11:24:49;;;;;;;;;;;;;;;8.14;61.40;95831.94;5101192;28;19916;-64
2022/09/19 11:27:17;;;;;;;;;;;;;;;8.48;56.94;95838.22;5099820;28;20109;-67
2022/09/19 11:29:46;;;;;;;;;;;;;;;8.24;57.16;95834.47;5098259;28;19932;-67
2022/09/19 11:32:13;;;;;;;;;;;;;;;7.74;61.02;95844.72;5098957;28;19930;-66
2022/09/19 11:34:54;;;;;;;;;;;;;;;7.64;59.74;95838.69;5081974;28;19920;-67
2022/09/19 11:37:41;;;;;;;;;;;;;;;7.24;61.20;95841.66;5101128;28;19924;-66
2022/09/19 11:40:14;;;;;;;;;;;;;;;7.69;60.33;95840.88;5098812;28;20360;-67
2022/09/19 11:42:58;;;;;;;;;;;;;;;7.48;59.63;95845.50;5085915;28;19969;-67
2022/09/19 11:45:23;;;;;;;;;;;;;;;8.24;58.81;95841.59;5100141;28;20177;-67
2022/09/19 11:48:05;;;;;;;;;;;;;;;7.65;57.91;95835.06;5081282;28;19928;-67
2022/09/19 11:50:32;;;;;;;;;;;;;;;8.00;57.52;95835.16;5097978;28;20459;-66
2022/09/19 11:53:18;;;;;;;;;;;;;;;7.76;58.17;95842.75;5094448;28;20013;-67
2022/09/19 11:55:59;;;;;;;;;;;;;;;8.02;55.77;95836.66;5100407;28;19919;-67
2022/09/19 11:58:24;;;;;;;;;;;;;;;8.27;55.68;95833.31;5088069;28;20215;-65
2022/09/19 12:00:50;;;;;;;;;;;;;;;8.39;55.20;95831.22;5099147;28;20006;-66
2022/09/19 12:03:24;;;;;;;;;;;;;;;8.04;56.19;95839.16;5100533;28;19934;-66
2022/09/19 12:05:53;;;;;;;;;;;;;;;8.03;55.58;95829.56;5097730;28;19923;-67
2022/09/19 12:08:32;;;;;;;;;;;;;;;7.40;58.32;95830.41;5101329;28;20482;-66
2022/09/19 12:11:05;;;;;;;;;;;;;;;7.83;56.37;95813.00;5082414;28;20014;-66
2022/09/19 12:13:33;;;;;;;;;;;;;;;8.57;55.97;95808.06;5097707;28;19924;-67
2022/09/19 12:16:01;;;;;;;;;;;;;;;8.44;57.76;95823.63;5083966;28;20495;-66
2022/09/19 12:18:35;;;;;;;;;;;;;;;8.01;55.08;95810.31;5098688;28;19920;-65
2022/09/19 12:21:00;;;;;;;;;;;;;;;7.95;54.44;95819.72;5102722;28;20660;-66
2022/09/19 12:26:16;;;;;;;;;;;;;;;7.43;57.82;95821.31;5101914;27;20007;-67
2022/09/19 12:28:47;;;;;;;;;;;;;;;8.02;57.53;95810.16;5102434;28;19920;-66
2022/09/19 12:31:13;;;;;;;;;;;;;;;7.91;57.82;95821.00;5090441;28;20001;-66
2022/09/19 12:33:40;;;;;;;;;;;;;;;8.46;57.70;95816.31;5103976;28;20782;-66
2022/09/19 12:36:06;;;;;;;;;;;;;;;8.87;54.18;95823.59;5104338;28;19920;-65
2022/09/19 12:38:40;;;;;;;;;;;;;;;8.46;55.75;95815.50;5103263;28;20380;-67
2022/09/19 12:41:16;;;;;;;;;;;;;;;8.98;51.09;95817.19;5091893;28;19931;-65
2022/09/19 12:44:03;;;;;;;;;;;;;;;8.82;52.45;95804.66;5087475;28;19920;-66
2022/09/19 12:46:49;;;;;;;;;;;;;;;8.57;52.19;95818.69;5083544;28;20269;-67
2022/09/19 12:49:27;;;;;;;;;;;;;;;8.47;52.95;95820.63;5100627;28;19924;-66
2022/09/19 12:52:00;;;;;;;;;;;;;;;9.56;51.45;95805.78;5101627;28;20192;-67
2022/09/19 12:54:28;;;;;;;;;;;;;;;9.57;52.88;95813.59;5102812;28;19923;-66
2022/09/19 12:57:02;;;;;;;;;;;;;;;10.08;49.81;95809.03;5102470;28;19920;-67
2022/09/19 12:59:29;;;;;;;;;;;;;;;9.27;52.68;95820.38;5085502;28;19923;-67
2022/09/19 13:01:56;;;;;;;;;;;;;;;8.57;50.76;95817.88;5102287;28;19996;-67
2022/09/19 13:04:28;;;;;;;;;;;;;;;8.22;54.35;95828.47;5102922;28;20432;-66
2022/09/19 13:06:55;;;;;;;;;;;;;;;8.50;53.22;95825.63;5101999;27;20471;-68
2022/09/19 13:09:22;;;;;;;;;;;;;;;9.11;52.14;95819.34;5086933;28;20018;-65
2022/09/19 13:11:53;;;;;;;;;;;;;;;8.90;50.41;95838.34;5085175;28;19968;-68
2022/09/19 13:14:37;;;;;;;;;;;;;;;9.23;48.59;95819.88;5102458;28;20021;-66
2022/09/19 13:25:16;;;;;;;;;;;;;;;8.93;50.32;95822.94;5095385;28;20007;-66
2022/09/19 13:27:48;;;;;;;;;;;;;;;9.66;49.15;95829.53;5102602;27;20181;-66
2022/09/19 13:30:32;;;;;;;;;;;;;;;8.94;50.11;95831.72;5086716;28;20027;-67